createdAt,value
2019-03-18T00:02:15.026Z,1.65
2019-03-18T00:07:18.505Z,1.47
2019-03-18T00:12:22.389Z,1.45
2019-03-18T00:17:26.697Z,1.33
2019-03-18T00:22:30.421Z,1.42
2019-03-18T00:27:34.297Z,0.90
2019-03-18T00:32:37.898Z,1.02
2019-03-18T00:37:41.834Z,0.98
2019-03-18T00:42:44.848Z,0.90
2019-03-18T00:47:48.081Z,0.88
2019-03-18T00:52:51.600Z,1.10
2019-03-18T00:57:55.128Z,0.70
2019-03-18T01:02:58.637Z,0.70
2019-03-18T01:08:02.150Z,0.80
2019-03-18T01:13:05.543Z,0.60
2019-03-18T01:18:08.827Z,0.62
2019-03-18T01:23:11.955Z,0.70
2019-03-18T01:28:15.066Z,0.80
2019-03-18T01:33:18.446Z,1.00
2019-03-18T01:38:21.677Z,0.82
2019-03-18T01:43:25.161Z,1.00
2019-03-18T01:48:28.387Z,0.90
2019-03-18T01:53:31.348Z,0.98
2019-03-18T01:58:34.675Z,0.98
2019-03-18T02:03:37.885Z,1.10
2019-03-18T02:08:40.999Z,1.10
2019-03-18T02:13:44.265Z,1.15
2019-03-18T02:18:47.230Z,1.22
2019-03-18T02:23:50.327Z,1.40
2019-03-18T02:28:53.693Z,1.00
2019-03-18T02:33:56.842Z,1.10
2019-03-18T02:39:00.155Z,1.17
2019-03-18T02:44:03.130Z,2.33
2019-03-18T02:49:06.533Z,2.00
2019-03-18T02:54:09.533Z,2.08
2019-03-18T02:59:12.613Z,1.50
2019-03-18T03:04:15.899Z,1.07
2019-03-18T03:09:18.994Z,1.00
2019-03-18T03:14:21.986Z,1.12
2019-03-18T03:19:25.203Z,1.12
2019-03-18T03:24:28.243Z,1.40
2019-03-18T03:29:31.431Z,1.87
2019-03-18T03:34:34.758Z,2.42
2019-03-18T03:39:37.860Z,1.95
2019-03-18T03:44:40.900Z,3.42
2019-03-18T03:49:44.184Z,4.47
2019-03-18T03:54:47.614Z,3.87
2019-03-18T03:59:50.590Z,4.17
2019-03-18T04:04:54.128Z,3.83
2019-03-18T04:09:57.323Z,2.87
2019-03-18T04:15:00.598Z,3.25
2019-03-18T04:20:04.667Z,3.30
2019-03-18T04:25:08.509Z,2.35
2019-03-18T04:30:11.809Z,2.90
2019-03-18T04:35:14.918Z,2.80
2019-03-18T04:40:18.010Z,3.08
2019-03-18T04:45:21.078Z,2.87
2019-03-18T04:50:24.069Z,3.02
2019-03-18T04:55:27.142Z,2.98
2019-03-18T05:00:30.240Z,3.08
2019-03-18T05:05:33.495Z,3.37
2019-03-18T05:10:36.450Z,3.30
2019-03-18T05:15:39.593Z,3.60
2019-03-18T05:20:42.674Z,3.42
2019-03-18T05:25:45.691Z,3.50
2019-03-18T05:30:48.650Z,3.77
2019-03-18T05:35:51.806Z,3.50
2019-03-18T05:40:54.912Z,3.67
2019-03-18T05:45:58.036Z,4.25
2019-03-18T05:51:00.964Z,3.45
2019-03-18T05:56:04.140Z,3.40
2019-03-18T06:01:07.344Z,3.60
2019-03-18T06:06:10.561Z,3.67
2019-03-18T06:11:13.709Z,3.50
2019-03-18T06:16:16.943Z,2.70
2019-03-18T06:21:20.322Z,2.95
2019-03-18T06:26:23.393Z,2.77
2019-03-18T06:31:26.510Z,2.70
2019-03-18T06:36:29.490Z,2.90
2019-03-18T06:41:32.633Z,3.45
2019-03-18T06:46:35.717Z,3.26
2019-03-18T06:51:39.163Z,2.80
2019-03-18T06:56:42.527Z,3.20
2019-03-18T07:01:45.665Z,3.42
2019-03-18T07:06:48.892Z,2.72
2019-03-18T07:11:51.878Z,3.30
2019-03-18T07:16:54.877Z,3.30
2019-03-18T07:21:58.096Z,4.40
2019-03-18T07:27:01.506Z,3.57
2019-03-18T07:32:04.773Z,3.55
2019-03-18T07:37:07.837Z,3.62
2019-03-18T07:42:10.990Z,3.64
2019-03-18T07:47:14.095Z,3.92
2019-03-18T07:52:17.280Z,3.60
2019-03-18T07:57:20.717Z,4.03
2019-03-18T08:02:23.764Z,4.25
2019-03-18T08:07:27.041Z,3.42
2019-03-18T08:12:30.128Z,2.70
2019-03-18T08:17:33.487Z,3.67
2019-03-18T08:22:36.933Z,3.52
2019-03-18T08:27:40.240Z,3.25
2019-03-18T08:32:43.701Z,3.40
2019-03-18T08:37:46.764Z,3.27
2019-03-18T08:42:49.957Z,2.80
2019-03-18T08:47:53.189Z,2.55
2019-03-18T08:52:56.561Z,3.37
2019-03-18T08:57:59.703Z,2.83
2019-03-18T09:03:02.942Z,2.70
2019-03-18T09:08:06.096Z,2.70
2019-03-18T09:13:09.183Z,3.47
2019-03-18T09:18:12.351Z,2.75
2019-03-18T09:23:15.464Z,3.90
2019-03-18T09:28:18.743Z,3.22
2019-03-18T09:33:21.982Z,3.77
2019-03-18T09:38:25.016Z,3.87
2019-03-18T09:43:28.498Z,4.60
2019-03-18T09:48:31.711Z,2.40
2019-03-18T09:53:37.571Z,3.08
2019-03-18T09:58:39.888Z,2.22
2019-03-18T10:03:42.946Z,1.40
2019-03-18T10:08:46.040Z,1.42
2019-03-18T10:13:49.286Z,1.00
2019-03-18T10:18:52.410Z,1.55
2019-03-18T10:23:55.526Z,1.35
2019-03-18T10:28:58.734Z,1.47
2019-03-18T10:34:01.820Z,1.60
2019-03-18T10:39:07.307Z,1.90
2019-03-18T10:44:10.488Z,1.52
2019-03-18T10:49:13.711Z,1.95
2019-03-18T10:54:17.111Z,2.02
2019-03-18T10:59:20.656Z,2.10
2019-03-18T11:04:23.772Z,2.35
2019-03-18T11:09:26.785Z,2.40
2019-03-18T11:14:29.754Z,2.83
2019-03-18T11:19:32.818Z,2.50
2019-03-18T11:24:35.886Z,2.62
2019-03-18T11:29:38.969Z,2.98
2019-03-18T11:34:41.993Z,2.58
2019-03-18T11:39:45.306Z,3.20
2019-03-18T11:44:48.478Z,2.72
2019-03-18T11:49:51.791Z,2.87
2019-03-18T11:54:54.891Z,2.52
2019-03-18T11:59:58.168Z,2.95
2019-03-18T12:05:01.279Z,3.58
2019-03-18T12:10:05.734Z,3.40
2019-03-18T12:15:10.278Z,3.65
2019-03-18T12:20:23.686Z,3.47
2019-03-18T12:25:18.719Z,3.85
2019-03-18T12:30:22.088Z,2.98
2019-03-18T12:35:25.576Z,3.22
2019-03-18T12:40:28.746Z,3.00
2019-03-18T12:45:32.276Z,3.00
2019-03-18T12:50:53.982Z,3.60
2019-03-18T12:55:40.378Z,3.27
2019-03-18T13:00:43.559Z,3.00
2019-03-18T13:05:46.676Z,2.92
2019-03-18T13:10:49.829Z,2.30
2019-03-18T13:15:52.977Z,2.27
2019-03-18T13:21:07.362Z,2.40
2019-03-18T13:26:01.392Z,1.95
2019-03-18T13:31:04.536Z,2.58
2019-03-18T13:36:07.579Z,2.08
2019-03-18T13:41:10.851Z,1.70
2019-03-18T13:46:14.081Z,2.37
2019-03-18T13:51:21.241Z,2.02
2019-03-18T13:56:22.168Z,1.75
2019-03-18T14:01:25.262Z,1.60
2019-03-18T14:06:28.473Z,2.55
2019-03-18T14:11:31.544Z,2.10
2019-03-18T14:16:35.011Z,2.22
2019-03-18T14:21:38.133Z,2.08
2019-03-18T14:26:41.086Z,2.35
2019-03-18T14:31:44.059Z,2.30
2019-03-18T14:36:47.064Z,1.90
2019-03-18T14:41:50.211Z,2.25
2019-03-18T14:46:53.434Z,2.30
2019-03-18T14:51:56.619Z,2.52
2019-03-18T14:56:59.887Z,1.90
2019-03-18T15:02:02.870Z,1.85
2019-03-18T15:07:06.063Z,1.85
2019-03-18T15:12:09.148Z,2.10
2019-03-18T15:17:12.287Z,1.70
2019-03-18T15:22:15.331Z,2.40
2019-03-18T15:27:18.423Z,1.77
2019-03-18T15:32:21.373Z,2.25
2019-03-18T15:37:24.637Z,2.02
2019-03-18T15:42:27.617Z,2.05
2019-03-18T15:47:30.936Z,1.60
2019-03-18T15:52:33.997Z,2.35
2019-03-18T15:57:37.240Z,2.33
2019-03-18T16:02:40.246Z,2.37
2019-03-18T16:07:43.417Z,2.52
2019-03-18T16:12:46.864Z,2.57
2019-03-18T16:17:49.955Z,2.92
2019-03-18T16:22:53.195Z,2.63
2019-03-18T16:27:56.288Z,2.37
2019-03-18T16:32:59.683Z,2.77
2019-03-18T16:38:02.961Z,3.33
2019-03-18T16:43:05.965Z,3.77
2019-03-18T16:48:09.070Z,3.00
2019-03-18T16:53:12.059Z,3.45
2019-03-18T16:58:15.334Z,3.10
2019-03-18T17:03:18.253Z,3.58
2019-03-18T17:08:21.382Z,3.08
2019-03-18T17:13:24.777Z,2.83
2019-03-18T17:18:27.741Z,2.80
2019-03-18T17:23:30.903Z,3.58
2019-03-18T17:28:34.446Z,3.67
2019-03-18T17:33:37.619Z,4.05
2019-03-18T17:38:40.900Z,3.52
2019-03-18T17:43:44.232Z,5.10
2019-03-18T17:48:47.358Z,6.10
2019-03-18T17:53:50.684Z,6.35
2019-03-18T17:58:53.987Z,6.70
2019-03-18T18:03:57.277Z,6.55
2019-03-18T18:09:00.506Z,6.35
2019-03-18T18:14:03.624Z,6.97
2019-03-18T18:19:06.890Z,5.08
2019-03-18T18:24:09.962Z,4.72
2019-03-18T18:29:12.974Z,4.00
2019-03-18T18:34:15.987Z,3.50
2019-03-18T18:39:19.476Z,4.05
2019-03-18T18:44:22.970Z,4.00
2019-03-18T18:49:26.046Z,4.30
2019-03-18T18:54:29.312Z,4.40
2019-03-18T18:59:32.507Z,4.90
2019-03-18T19:04:35.846Z,5.22
2019-03-18T19:09:39.420Z,5.53
2019-03-18T19:14:42.488Z,5.95
2019-03-18T19:19:45.727Z,5.97
2019-03-18T19:24:48.784Z,6.80
2019-03-18T19:29:51.847Z,5.87
2019-03-18T19:34:54.916Z,7.30
2019-03-18T19:39:58.210Z,6.50
2019-03-18T19:45:01.451Z,5.97
2019-03-18T19:50:06.841Z,7.12
2019-03-18T19:55:10.315Z,9.90
2019-03-18T20:00:16.460Z,7.80
2019-03-18T20:05:20.095Z,8.60
2019-03-18T20:10:23.502Z,9.48
2019-03-18T20:15:26.663Z,9.93
2019-03-18T20:20:29.825Z,8.63
2019-03-18T20:25:32.976Z,9.83
2019-03-18T20:30:36.055Z,10.32
2019-03-18T20:35:39.250Z,9.90
2019-03-18T20:40:42.339Z,10.03
2019-03-18T20:45:45.548Z,10.58
2019-03-18T20:50:49.079Z,12.13
2019-03-18T20:55:52.247Z,12.50
2019-03-18T21:00:55.809Z,13.38
2019-03-18T21:05:58.947Z,15.00
2019-03-18T21:11:02.022Z,15.93
2019-03-18T21:16:05.108Z,16.62
2019-03-18T21:21:08.335Z,16.25
2019-03-18T21:26:11.545Z,15.93
2019-03-18T21:31:14.941Z,16.37
2019-03-18T21:36:32.802Z,16.57
2019-03-18T21:41:23.022Z,17.00
2019-03-18T21:46:27.675Z,16.30
2019-03-18T21:51:30.983Z,17.37
2019-03-18T21:56:34.210Z,19.00
2019-03-18T22:01:37.502Z,18.87
2019-03-18T22:06:40.604Z,16.80
2019-03-18T22:11:43.978Z,18.13
2019-03-18T22:16:47.086Z,17.77
2019-03-18T22:21:50.158Z,26.97
2019-03-18T22:26:53.194Z,21.35
2019-03-18T22:31:56.557Z,22.30
2019-03-18T22:36:59.844Z,22.75
2019-03-18T22:42:02.807Z,21.50
2019-03-18T22:47:06.106Z,19.52
2019-03-18T22:52:11.165Z,20.93
2019-03-18T22:57:13.977Z,20.85
2019-03-18T23:02:17.080Z,20.50
2019-03-18T23:07:20.126Z,14.07
2019-03-18T23:12:23.081Z,16.17
2019-03-18T23:17:26.176Z,18.97
2019-03-18T23:22:29.264Z,18.65
2019-03-18T23:27:32.701Z,16.30
2019-03-18T23:32:36.361Z,20.96
2019-03-18T23:37:39.328Z,21.80
2019-03-18T23:42:42.886Z,21.23
2019-03-18T23:47:46.163Z,20.27
2019-03-18T23:52:49.108Z,21.97
2019-03-18T23:57:54.236Z,20.60
